Eastchester, New York
Current Conditions -  °F | °C
As of 8:56 AM on Monday 24 Nov 2014 (Local Time) from KHPN Reporting Station
Haze Haze  
Wind Chill: 15°   Ceiling: 200
Heat Index: 15°   Visibility: 1.2mi
Dew Point: 14°   Wind: 10mph
Humidity: 96%   Direction: 180°S
Pressure: 29.7"   Gusts: 17mph
Location:  40.96°N, 73.81°W
Report Text: KHPN 241356Z 18009G15KT 1 1/4SM BR VV002 15/14 A2970 RMK AO2 RAE24 SLP058 P0001 T01500144
Loading
Personal Weather Stations






























Interactive Weather Map New forecast layout! Learn more

10-Day Weather Forecast

Advertisements
Track Severe Weather on mobile